Terminal Aerodrome Forecast
Issued by NWS

Home | Current Version | Previous Version | Text Only | Print | Product List | Glossary On
Versions: 1 2 3 4 5 6 7 8 9 10 11 12 13 14 15 16 17 18 19 20 21 22 23 24 25 26 27 28 29
461
FTUS43 KDLH 140533
TAFHYR
TAF
KHYR 140533Z 1406/1506 VRB03KT P6SM BKN025 OVC035
     FM140800 VRB03KT P6SM -SN BKN025
     FM141000 VRB04KT P6SM -SN BKN015 OVC025
     FM150500 28004KT P6SM BKN030=

USA.gov is the U.S. government's official web portal to all federal, state and local government web resources and services.